This is the latest recevied weather packets stored in our database for station/object R1ZAAG-14. If no packets are shown the sender has not sent any weather packets the latest 10 day(s).
| Time | Temp. | Humidity | Pressure | Rain* | Wind** | Luminosity | Snow |
|---|---|---|---|---|---|---|---|
| 1777983973 | 7.78° C | 59% | 996.3 hPa | - | - | - | - |
| 1777983077 | 7.78° C | 58% | 996.1 hPa | - | - | - | - |
| 1777983073 | 7.78° C | 58% | 996.1 hPa | - | - | - | - |
| 1777982176 | 7.78° C | 58% | 995.9 hPa | - | - | - | - |
| 1777982172 | 7.78° C | 58% | 995.9 hPa | - | - | - | - |
| 1777981278 | 9.44° C | 55% | 995.8 hPa | - | - | - | - |
| 1777981271 | 9.44° C | 55% | 995.8 hPa | - | - | - | - |
| 1777980377 | 8.33° C | 57% | 995.6 hPa | - | - | - | - |
| 1777980370 | 8.33° C | 57% | 995.6 hPa | - | - | - | - |
| 1777979475 | 8.33° C | 56% | 995.4 hPa | - | - | - | - |
| 1777979468 | 8.33° C | 56% | 995.4 hPa | - | - | - | - |
| 1777978578 | 8.33° C | 57% | 995.3 hPa | - | - | - | - |
| 1777978568 | 8.33° C | 57% | 995.3 hPa | - | - | - | - |
| 1777977676 | 7.78° C | 58% | 995.1 hPa | - | - | - | - |
| 1777977667 | 7.78° C | 58% | 995.1 hPa | - | - | - | - |
| 1777976787 | 8.89° C | 56% | 995.1 hPa | - | - | - | - |
| 1777975887 | 7.22° C | 58% | 994.9 hPa | - | - | - | - |
| 1777974986 | 7.22° C | 60% | 994.9 hPa | - | - | - | - |
| 1777974085 | 6.67° C | 57% | 994.7 hPa | - | - | - | - |
| 1777973184 | 6.67° C | 54% | 994.7 hPa | - | - | - | - |
| 1777972283 | 6.67° C | 53% | 994.8 hPa | - | - | - | - |
| 1777971382 | 6.67° C | 51% | 994.7 hPa | - | - | - | - |
| 1777970481 | 7.78° C | 49% | 994.7 hPa | - | - | - | - |
| 1777969580 | 6.67° C | 50% | 994.6 hPa | - | - | - | - |
| 1777968679 | 5.56° C | 55% | 994.5 hPa | - | - | - | - |
* Rain since midnight (hover to see other rain measurements)
** Current wind speed in m/s (hover to see current wind gust speed)